createdAt,value
2022-09-04T00:00:58.479Z,18.22
2022-09-04T00:04:00.812Z,18.18
2022-09-04T00:06:43.145Z,18.17
2022-09-04T00:09:37.531Z,18.14
2022-09-04T00:12:10.194Z,18.13
2022-09-04T00:14:50.788Z,18.13
2022-09-04T00:17:45.162Z,18.11
2022-09-04T00:20:40.365Z,18.07
2022-09-04T00:23:59.618Z,18.02
2022-09-04T00:26:58.178Z,17.97
2022-09-04T00:29:36.558Z,17.96
2022-09-04T00:32:20.079Z,17.92
2022-09-04T00:35:08.685Z,17.85
2022-09-04T00:37:54.718Z,17.82
2022-09-04T00:40:38.761Z,17.81
2022-09-04T00:43:59.362Z,17.79
2022-09-04T00:46:52.050Z,17.77
2022-09-04T00:49:57.539Z,17.78
2022-09-04T00:53:09.850Z,17.72
2022-09-04T00:55:54.244Z,17.72
2022-09-04T00:59:16.066Z,17.63
2022-09-04T01:01:48.333Z,17.61
2022-09-04T01:04:32.791Z,17.60
2022-09-04T01:07:59.362Z,17.55
2022-09-04T01:11:08.927Z,17.50
2022-09-04T01:14:26.393Z,17.45
2022-09-04T01:17:32.358Z,17.44
2022-09-04T01:20:22.384Z,17.42
2022-09-04T01:23:08.897Z,17.46
2022-09-04T01:26:08.113Z,17.41
2022-09-04T01:29:16.303Z,17.33
2022-09-04T01:32:29.446Z,17.32
2022-09-04T01:35:34.380Z,17.28
2022-09-04T01:38:16.729Z,17.29
2022-09-04T01:41:07.457Z,17.28
2022-09-04T01:43:40.444Z,17.22
2022-09-04T01:47:01.238Z,17.15
2022-09-04T01:49:54.356Z,17.03
2022-09-04T01:52:45.727Z,17.00
2022-09-04T01:55:32.321Z,17.00
2022-09-04T01:58:40.555Z,16.97
2022-09-04T02:01:48.973Z,16.95
2022-09-04T02:05:03.076Z,16.87
2022-09-04T02:08:06.341Z,16.86
2022-09-04T02:11:15.056Z,16.85
2022-09-04T02:14:17.867Z,16.82
2022-09-04T02:17:18.530Z,16.80
2022-09-04T02:20:23.831Z,16.78
2022-09-04T02:23:26.498Z,16.75
2022-09-04T02:26:24.614Z,16.74
2022-09-04T02:29:46.450Z,16.69
2022-09-04T02:33:00.100Z,16.68
2022-09-04T02:35:53.158Z,16.69
2022-09-04T02:38:42.927Z,16.64
2022-09-04T02:42:03.893Z,16.64
2022-09-04T02:45:00.408Z,16.63
2022-09-04T02:48:02.359Z,16.60
2022-09-04T02:50:59.664Z,16.55
2022-09-04T02:53:50.354Z,16.54
2022-09-04T02:57:20.422Z,16.48
2022-09-04T03:00:40.414Z,16.43
2022-09-04T03:03:46.054Z,16.36
2022-09-04T03:06:33.210Z,16.36
2022-09-04T03:09:16.979Z,16.33
2022-09-04T03:12:08.721Z,16.28
2022-09-04T03:14:54.392Z,16.29
2022-09-04T03:17:57.898Z,16.23
2022-09-04T03:20:36.851Z,16.15
2022-09-04T03:23:39.810Z,16.11
2022-09-04T03:26:32.504Z,16.09
2022-09-04T03:29:16.920Z,16.09
2022-09-04T03:32:15.638Z,16.07
2022-09-04T03:35:03.211Z,16.00
2022-09-04T03:37:59.283Z,15.98
2022-09-04T03:40:34.186Z,15.99
2022-09-04T03:43:45.085Z,15.94
2022-09-04T03:46:54.056Z,15.90
2022-09-04T03:49:59.103Z,15.90
2022-09-04T03:52:55.969Z,15.82
2022-09-04T03:56:17.265Z,15.74
2022-09-04T03:59:21.151Z,15.71
2022-09-04T04:02:27.942Z,15.71
2022-09-04T04:05:18.741Z,15.71
2022-09-04T04:08:04.694Z,15.69
2022-09-04T04:11:54.979Z,15.64
2022-09-04T04:15:10.460Z,15.62
2022-09-04T04:17:56.549Z,15.62
2022-09-04T04:20:57.412Z,15.59
2022-09-04T04:24:06.013Z,15.54
2022-09-04T04:26:58.716Z,15.54
2022-09-04T04:30:02.227Z,15.53
2022-09-04T04:33:09.034Z,15.52
2022-09-04T04:36:13.307Z,15.53
2022-09-04T04:39:09.962Z,15.52
2022-09-04T04:42:15.442Z,15.49
2022-09-04T04:45:50.303Z,15.43
2022-09-04T04:49:22.677Z,15.42
2022-09-04T04:52:24.164Z,15.40
2022-09-04T04:55:26.505Z,15.38
2022-09-04T04:58:42.276Z,15.39
2022-09-04T05:01:36.089Z,15.38
2022-09-04T05:04:33.058Z,15.38
2022-09-04T05:07:38.261Z,15.39
2022-09-04T05:10:34.758Z,15.43
2022-09-04T05:13:40.265Z,15.51
2022-09-04T05:16:23.191Z,15.60
2022-09-04T05:19:31.448Z,15.67
2022-09-04T05:22:36.882Z,15.71
2022-09-04T05:25:39.281Z,15.69
2022-09-04T05:28:32.977Z,15.75
2022-09-04T05:31:38.726Z,15.76
2022-09-04T05:35:09.709Z,15.80
2022-09-04T05:38:16.274Z,15.85
2022-09-04T05:41:35.332Z,15.89
2022-09-04T05:44:35.122Z,15.90
2022-09-04T05:47:29.857Z,15.91
2022-09-04T05:50:41.255Z,15.94
2022-09-04T05:53:45.834Z,15.94
2022-09-04T05:57:08.065Z,15.93
2022-09-04T05:59:54.924Z,15.92
2022-09-04T06:02:59.556Z,15.92
2022-09-04T06:06:04.419Z,15.94
2022-09-04T06:09:13.986Z,15.99
2022-09-04T06:12:29.796Z,16.09
2022-09-04T06:15:19.908Z,16.22
2022-09-04T06:18:33.404Z,16.28
2022-09-04T06:21:23.249Z,16.37
2022-09-04T06:24:36.956Z,16.43
2022-09-04T06:27:27.283Z,16.56
2022-09-04T06:30:17.846Z,16.54
2022-09-04T06:33:15.543Z,16.62
2022-09-04T06:36:48.271Z,16.73
2022-09-04T06:39:49.300Z,16.82
2022-09-04T06:43:08.794Z,16.85
2022-09-04T06:46:16.260Z,16.93
2022-09-04T06:48:57.303Z,17.04
2022-09-04T06:52:03.350Z,17.07
2022-09-04T06:55:05.108Z,17.22
2022-09-04T06:58:01.514Z,17.30
2022-09-04T07:00:53.484Z,17.43
2022-09-04T07:03:46.519Z,17.56
2022-09-04T07:06:50.354Z,17.70
2022-09-04T07:09:32.903Z,17.87
2022-09-04T07:12:33.679Z,18.02
2022-09-04T07:15:38.767Z,18.16
2022-09-04T07:18:44.886Z,18.33
2022-09-04T07:22:01.710Z,18.53
2022-09-04T07:25:10.125Z,18.80
2022-09-04T07:28:09.491Z,18.93
2022-09-04T07:30:58.538Z,19.22
2022-09-04T07:33:42.222Z,19.55
2022-09-04T07:36:31.879Z,19.78
2022-09-04T07:39:29.784Z,19.74
2022-09-04T07:42:10.370Z,19.78
2022-09-04T07:45:01.994Z,19.96
2022-09-04T07:47:47.653Z,20.36
2022-09-04T07:50:35.616Z,20.72
2022-09-04T07:54:22.662Z,21.00
2022-09-04T07:57:09.746Z,21.41
2022-09-04T07:59:53.829Z,21.81
2022-09-04T08:02:57.590Z,21.95
2022-09-04T08:05:41.434Z,22.22
2022-09-04T08:09:07.268Z,22.45
2022-09-04T08:11:51.523Z,22.67
2022-09-04T08:14:39.018Z,22.88
2022-09-04T08:17:57.010Z,23.16
2022-09-04T08:20:38.712Z,23.48
2022-09-04T08:23:42.626Z,23.81
2022-09-04T08:26:50.264Z,24.18
2022-09-04T08:30:04.801Z,24.59
2022-09-04T08:32:56.579Z,24.80
2022-09-04T08:35:55.101Z,25.04
2022-09-04T08:39:07.363Z,25.44
2022-09-04T08:42:06.295Z,25.91
2022-09-04T08:45:35.067Z,26.78
2022-09-04T08:48:49.040Z,27.81
2022-09-04T08:52:01.087Z,29.11
2022-09-04T08:55:07.396Z,30.21
2022-09-04T08:57:59.339Z,30.88
2022-09-04T09:01:05.256Z,31.79
2022-09-04T09:04:14.402Z,32.69
2022-09-04T09:07:30.612Z,33.30
2022-09-04T09:10:56.774Z,33.09
2022-09-04T09:13:49.238Z,33.47
2022-09-04T09:16:53.060Z,33.42
2022-09-04T09:19:33.851Z,32.85
2022-09-04T09:23:02.365Z,32.73
2022-09-04T09:25:46.055Z,32.87
2022-09-04T09:29:05.330Z,33.29
2022-09-04T09:32:28.989Z,33.59
2022-09-04T09:35:46.406Z,33.87
2022-09-04T09:38:59.784Z,34.09
2022-09-04T09:42:23.570Z,34.62
2022-09-04T09:45:14.747Z,35.69
2022-09-04T09:48:21.218Z,36.11
2022-09-04T09:51:36.964Z,36.31
2022-09-04T09:54:30.491Z,36.33
2022-09-04T09:58:00.700Z,35.54
2022-09-04T10:00:52.558Z,35.49
2022-09-04T10:04:11.984Z,35.67
2022-09-04T10:07:10.979Z,35.73
2022-09-04T10:10:27.805Z,35.87
2022-09-04T10:13:31.164Z,36.74
2022-09-04T10:16:44.254Z,37.43
2022-09-04T10:19:54.433Z,37.77
2022-09-04T10:22:52.570Z,38.00
2022-09-04T10:26:18.402Z,38.25
2022-09-04T10:29:30.299Z,38.77
2022-09-04T10:32:25.803Z,38.15
2022-09-04T10:35:43.332Z,38.90
2022-09-04T10:39:03.593Z,39.10
2022-09-04T10:42:04.685Z,39.39
2022-09-04T10:44:45.079Z,40.22
2022-09-04T10:47:26.793Z,40.80
2022-09-04T10:50:23.508Z,41.58
2022-09-04T10:53:40.612Z,41.94
2022-09-04T10:56:42.074Z,41.08
2022-09-04T10:59:44.822Z,41.04
2022-09-04T11:03:06.669Z,41.22
2022-09-04T11:06:02.831Z,41.45
2022-09-04T11:08:51.858Z,41.28
2022-09-04T11:11:58.741Z,41.46
2022-09-04T11:15:01.861Z,41.36
2022-09-04T11:17:57.447Z,40.47
2022-09-04T11:21:09.944Z,40.34
2022-09-04T11:24:12.668Z,39.87
2022-09-04T11:27:20.442Z,39.49
2022-09-04T11:30:07.350Z,39.18
2022-09-04T11:33:21.994Z,38.64
2022-09-04T11:36:27.247Z,38.60
2022-09-04T11:39:38.121Z,38.26
2022-09-04T11:42:21.970Z,38.22
2022-09-04T11:45:38.981Z,38.00
2022-09-04T11:48:42.181Z,39.16
2022-09-04T11:51:40.653Z,39.52
2022-09-04T11:54:33.914Z,40.24
2022-09-04T11:57:28.680Z,40.76
2022-09-04T12:00:09.587Z,41.05
2022-09-04T12:03:09.208Z,41.56
2022-09-04T12:06:05.565Z,40.23
2022-09-04T12:09:17.660Z,39.12
2022-09-04T12:12:34.584Z,37.41
2022-09-04T12:15:32.504Z,37.67
2022-09-04T12:18:37.342Z,37.40
2022-09-04T12:22:14.660Z,37.44
2022-09-04T12:25:13.689Z,37.37
2022-09-04T12:28:40.208Z,37.55
2022-09-04T12:31:55.251Z,37.23
2022-09-04T12:34:45.965Z,36.75
2022-09-04T12:38:13.684Z,35.76
2022-09-04T12:41:40.535Z,34.44
2022-09-04T12:44:43.699Z,34.05
2022-09-04T12:47:41.786Z,34.22
2022-09-04T12:50:47.816Z,33.82
2022-09-04T12:53:58.810Z,33.72
2022-09-04T12:57:08.246Z,33.60
2022-09-04T13:00:01.546Z,33.14
2022-09-04T13:02:45.049Z,32.81
2022-09-04T13:05:36.037Z,32.60
2022-09-04T13:08:29.171Z,32.56
2022-09-04T13:11:28.016Z,32.37
2022-09-04T13:14:32.010Z,32.31
2022-09-04T13:17:58.535Z,32.21
2022-09-04T13:20:49.145Z,32.20
2022-09-04T13:24:09.107Z,32.05
2022-09-04T13:27:04.797Z,32.10
2022-09-04T13:30:03.337Z,31.87
2022-09-04T13:32:50.786Z,31.58
2022-09-04T13:35:59.402Z,31.46
2022-09-04T13:39:05.185Z,31.17
2022-09-04T13:42:13.802Z,30.86
2022-09-04T13:44:58.687Z,30.80
2022-09-04T13:47:41.308Z,30.51
2022-09-04T13:50:25.719Z,30.05
2022-09-04T13:53:12.252Z,30.05
2022-09-04T13:56:01.299Z,30.06
2022-09-04T13:58:51.315Z,30.15
2022-09-04T14:01:27.988Z,30.33
2022-09-04T14:04:07.917Z,30.28
2022-09-04T14:06:39.929Z,29.99
2022-09-04T14:09:12.302Z,29.98
2022-09-04T14:12:20.661Z,29.59
2022-09-04T14:15:10.288Z,29.45
2022-09-04T14:17:50.870Z,29.42
2022-09-04T14:20:42.964Z,29.52
2022-09-04T14:24:03.385Z,29.69
2022-09-04T14:26:57.625Z,29.53
2022-09-04T14:30:02.390Z,29.49
2022-09-04T14:32:56.799Z,29.39
2022-09-04T14:36:21.826Z,29.43
2022-09-04T14:39:06.675Z,29.34
2022-09-04T14:41:54.498Z,29.14
2022-09-04T14:44:48.154Z,28.96
2022-09-04T14:47:29.914Z,28.82
2022-09-04T14:50:03.271Z,28.70
2022-09-04T14:52:51.156Z,28.80
2022-09-04T14:55:40.562Z,28.79
2022-09-04T14:58:25.232Z,28.84
2022-09-04T15:01:17.462Z,28.72
2022-09-04T15:04:10.432Z,28.45
2022-09-04T15:07:12.149Z,28.47
2022-09-04T15:09:49.135Z,28.60
2022-09-04T15:12:37.842Z,28.48
2022-09-04T15:15:43.212Z,28.39
2022-09-04T15:18:45.674Z,28.33
2022-09-04T15:21:46.822Z,28.34
2022-09-04T15:24:35.017Z,28.49
2022-09-04T15:27:28.981Z,28.27
2022-09-04T15:30:04.673Z,28.27
2022-09-04T15:32:42.693Z,28.34
2022-09-04T15:35:33.702Z,28.21
2022-09-04T15:38:22.113Z,28.11
2022-09-04T15:41:19.855Z,28.12
2022-09-04T15:44:15.786Z,28.16
2022-09-04T15:47:06.956Z,28.19
2022-09-04T15:49:56.759Z,28.06
2022-09-04T15:52:44.120Z,27.99
2022-09-04T15:55:27.189Z,27.93
2022-09-04T15:58:25.593Z,27.78
2022-09-04T16:01:06.391Z,27.53
2022-09-04T16:04:07.599Z,27.43
2022-09-04T16:06:48.003Z,27.36
2022-09-04T16:09:40.021Z,27.31
2022-09-04T16:12:20.818Z,27.24
2022-09-04T16:15:18.450Z,27.28
2022-09-04T16:17:55.763Z,27.28
2022-09-04T16:20:52.587Z,27.21
2022-09-04T16:23:36.121Z,27.20
2022-09-04T16:26:27.999Z,27.08
2022-09-04T16:29:17.785Z,27.10
2022-09-04T16:31:55.234Z,27.14
2022-09-04T16:34:33.018Z,27.10
2022-09-04T16:37:29.640Z,27.10
2022-09-04T16:40:29.192Z,26.97
2022-09-04T16:43:27.990Z,26.99
2022-09-04T16:46:15.039Z,27.00
2022-09-04T16:49:20.699Z,26.95
2022-09-04T16:52:34.545Z,26.85
2022-09-04T16:55:30.039Z,26.87
2022-09-04T16:58:11.147Z,26.78
2022-09-04T17:01:27.522Z,26.73
2022-09-04T17:04:40.071Z,26.67
2022-09-04T17:07:53.757Z,26.58
2022-09-04T17:11:14.162Z,26.50
2022-09-04T17:14:08.866Z,26.41
2022-09-04T17:17:29.863Z,26.36
2022-09-04T17:20:09.934Z,26.31
2022-09-04T17:28:56.116Z,26.27
2022-09-04T17:29:15.231Z,26.17
2022-09-04T17:29:34.957Z,26.11
2022-09-04T17:34:53.266Z,26.07
2022-09-04T17:40:32.918Z,25.98
2022-09-04T17:40:46.825Z,25.88
2022-09-04T17:42:20.384Z,25.80
2022-09-04T17:45:11.222Z,25.76
2022-09-04T17:47:43.837Z,25.69
2022-09-04T17:50:22.710Z,25.59
2022-09-04T17:53:02.601Z,25.54
2022-09-04T17:55:47.558Z,25.47
2022-09-04T17:58:47.477Z,25.35
2022-09-04T18:01:29.873Z,25.27
2022-09-04T18:04:20.271Z,25.19
2022-09-04T18:07:51.033Z,25.13
2022-09-04T18:10:29.470Z,25.08
2022-09-04T18:13:30.431Z,25.01
2022-09-04T18:16:39.921Z,24.93
2022-09-04T18:19:34.386Z,24.88
2022-09-04T18:22:45.532Z,24.78
2022-09-04T18:25:30.994Z,24.73
2022-09-04T18:28:28.749Z,24.67
2022-09-04T18:37:05.965Z,24.58
2022-09-04T18:37:21.161Z,24.49
2022-09-04T18:37:54.456Z,24.41
2022-09-04T18:42:57.582Z,24.39
2022-09-04T18:50:27.930Z,24.30
2022-09-04T18:50:28.926Z,24.15
2022-09-04T18:50:31.177Z,24.21
2022-09-04T18:53:08.204Z,24.08
2022-09-04T18:55:48.976Z,24.02
2022-09-04T18:58:56.975Z,23.98
2022-09-04T19:01:43.500Z,23.96
2022-09-04T19:05:08.950Z,23.84
2022-09-04T19:07:46.678Z,23.76
2022-09-04T19:10:25.652Z,23.68
2022-09-04T19:13:20.838Z,23.64
2022-09-04T19:16:41.199Z,23.58
2022-09-04T19:19:30.650Z,23.54
2022-09-04T19:22:12.927Z,23.48
2022-09-04T19:25:12.316Z,23.44
2022-09-04T19:27:46.806Z,23.38
2022-09-04T19:30:23.890Z,23.36
2022-09-04T19:33:18.274Z,23.34
2022-09-04T19:36:32.220Z,23.27
2022-09-04T19:45:56.493Z,23.21
2022-09-04T19:46:03.404Z,23.14
2022-09-04T19:46:11.848Z,23.09
2022-09-04T19:49:30.056Z,23.04
2022-09-04T19:53:23.933Z,23.01
2022-09-04T19:55:24.947Z,22.98
2022-09-04T19:58:14.151Z,22.93
2022-09-04T20:00:58.367Z,22.88
2022-09-04T20:03:46.169Z,22.84
2022-09-04T20:06:30.358Z,22.82
2022-09-04T20:09:51.548Z,22.79
2022-09-04T20:12:43.113Z,22.70
2022-09-04T20:15:31.540Z,22.66
2022-09-04T20:18:21.326Z,22.62
2022-09-04T20:21:08.734Z,22.59
2022-09-04T20:23:52.754Z,22.54
2022-09-04T20:27:01.335Z,22.46
2022-09-04T20:29:36.092Z,22.46
2022-09-04T20:32:22.445Z,22.41
2022-09-04T20:35:13.531Z,22.37
2022-09-04T20:37:53.835Z,22.32
2022-09-04T20:40:37.816Z,22.24
2022-09-04T20:43:24.432Z,22.21
2022-09-04T20:47:58.204Z,22.18
2022-09-04T20:52:53.515Z,22.14
2022-09-04T20:52:54.580Z,22.10
2022-09-04T20:56:13.338Z,22.05
2022-09-04T21:03:11.773Z,21.97
2022-09-04T21:03:18.656Z,21.96
2022-09-04T21:06:17.216Z,21.91
2022-09-04T21:09:01.276Z,21.86
2022-09-04T21:11:51.521Z,21.84
2022-09-04T21:14:45.419Z,21.81
2022-09-04T21:17:29.892Z,21.77
2022-09-04T21:20:18.941Z,21.74
2022-09-04T21:23:21.150Z,21.75
2022-09-04T21:26:27.677Z,21.69
2022-09-04T21:29:35.365Z,21.64
2022-09-04T21:32:41.655Z,21.60
2022-09-04T21:35:25.617Z,21.57
2022-09-04T21:38:20.677Z,21.55
2022-09-04T21:41:32.522Z,21.50
2022-09-04T21:44:28.396Z,21.47
2022-09-04T21:47:28.111Z,21.44
2022-09-04T21:50:30.602Z,21.40
2022-09-04T21:53:42.605Z,21.37
2022-09-04T22:02:29.835Z,21.34
2022-09-04T22:02:42.616Z,21.33
2022-09-04T22:03:42.597Z,21.32
2022-09-04T22:09:03.552Z,21.30
2022-09-04T22:13:32.584Z,21.21
2022-09-04T22:13:38.283Z,21.17
2022-09-04T22:17:22.546Z,21.12
2022-09-04T22:20:43.524Z,21.07
2022-09-04T22:23:40.498Z,21.04
2022-09-04T22:26:38.102Z,21.00
2022-09-04T22:30:09.117Z,20.93
2022-09-04T22:33:05.286Z,20.92
2022-09-04T22:36:28.133Z,20.85
2022-09-04T22:39:44.417Z,20.79
2022-09-04T22:42:44.093Z,20.75
2022-09-04T22:46:04.158Z,20.69
2022-09-04T22:49:12.345Z,20.66
2022-09-04T22:52:28.901Z,20.59
2022-09-04T22:55:40.509Z,20.60
2022-09-04T22:59:21.244Z,20.60
2022-09-04T23:02:40.758Z,20.55
2022-09-04T23:06:16.207Z,20.52
2022-09-04T23:13:50.103Z,20.46
2022-09-04T23:14:05.275Z,20.43
2022-09-04T23:16:50.090Z,20.41
2022-09-04T23:26:36.003Z,20.42
2022-09-04T23:26:44.991Z,20.37
2022-09-04T23:27:00.387Z,20.34
2022-09-04T23:30:25.131Z,20.33
2022-09-04T23:33:10.808Z,20.32
2022-09-04T23:35:46.826Z,20.33
2022-09-04T23:38:39.860Z,20.27
2022-09-04T23:41:44.666Z,20.28
2022-09-04T23:44:42.351Z,20.24
2022-09-04T23:47:50.626Z,20.22
2022-09-04T23:51:03.958Z,20.09
2022-09-04T23:54:00.125Z,20.08
2022-09-04T23:56:47.387Z,20.08
